createdAt,value
2022-08-30T00:00:56.600Z,83.42
2022-08-30T00:01:56.576Z,83.39
2022-08-30T00:02:56.693Z,83.08
2022-08-30T00:03:56.631Z,82.98
2022-08-30T00:04:56.595Z,82.88
2022-08-30T00:05:56.593Z,82.88
2022-08-30T00:06:56.506Z,100.00
2022-08-30T00:07:56.493Z,82.78
2022-08-30T00:08:56.500Z,82.58
2022-08-30T00:09:56.463Z,82.38
2022-08-30T00:10:56.452Z,82.28
2022-08-30T00:11:56.462Z,81.87
2022-08-30T00:12:56.432Z,81.98
2022-08-30T00:13:56.416Z,81.98
2022-08-30T00:14:56.414Z,81.87
2022-08-30T00:15:56.439Z,81.87
2022-08-30T00:16:56.411Z,82.07
2022-08-30T00:17:56.367Z,82.42
2022-08-30T00:18:56.377Z,82.82
2022-08-30T00:19:56.348Z,83.26
2022-08-30T00:20:56.350Z,83.56
2022-08-30T00:21:56.307Z,83.91
2022-08-30T00:22:56.298Z,84.31
2022-08-30T00:23:56.289Z,84.41
2022-08-30T00:24:56.279Z,84.17
2022-08-30T00:25:56.249Z,84.01
2022-08-30T00:26:56.235Z,84.11
2022-08-30T00:27:56.242Z,84.21
2022-08-30T00:28:56.230Z,84.41
2022-08-30T00:29:56.197Z,84.31
2022-08-30T00:30:56.201Z,84.31
2022-08-30T00:31:56.182Z,84.17
2022-08-30T00:32:56.265Z,83.87
2022-08-30T00:33:56.147Z,83.80
2022-08-30T00:34:56.167Z,83.91
2022-08-30T00:35:56.131Z,83.91
2022-08-30T00:36:56.131Z,84.01
2022-08-30T00:37:56.100Z,84.21
2022-08-30T00:38:56.097Z,84.41
2022-08-30T00:39:56.197Z,84.85
2022-08-30T00:40:56.062Z,85.46
2022-08-30T00:41:56.049Z,85.90
2022-08-30T00:42:59.254Z,86.21
2022-08-30T00:43:56.040Z,86.10
2022-08-30T00:44:56.053Z,86.00
2022-08-30T00:45:56.087Z,86.10
2022-08-30T00:46:55.993Z,86.30
2022-08-30T00:47:56.013Z,86.51
2022-08-30T00:48:55.976Z,86.85
2022-08-30T00:49:55.946Z,87.05
2022-08-30T00:50:55.981Z,87.15
2022-08-30T00:51:55.922Z,87.26
2022-08-30T00:52:55.937Z,87.46
2022-08-30T00:53:55.907Z,87.66
2022-08-30T00:54:55.886Z,87.76
2022-08-30T00:55:55.875Z,87.56
2022-08-30T00:56:55.871Z,87.66
2022-08-30T00:57:55.873Z,87.76
2022-08-30T00:58:55.858Z,87.86
2022-08-30T00:59:55.828Z,87.86
2022-08-30T01:00:55.814Z,87.66
2022-08-30T01:01:55.953Z,87.66
2022-08-30T01:02:55.839Z,87.86
2022-08-30T01:03:55.771Z,87.76
2022-08-30T01:04:55.781Z,87.41
2022-08-30T01:05:55.751Z,87.41
2022-08-30T01:06:55.743Z,87.32
2022-08-30T01:07:55.720Z,87.21
2022-08-30T01:08:55.708Z,86.81
2022-08-30T01:09:55.705Z,86.91
2022-08-30T01:10:55.687Z,87.12
2022-08-30T01:11:55.682Z,87.12
2022-08-30T01:12:55.687Z,100.00
2022-08-30T01:13:55.648Z,87.21
2022-08-30T01:14:55.633Z,87.41
2022-08-30T01:15:55.886Z,87.12
2022-08-30T01:16:55.618Z,87.07
2022-08-30T01:17:55.594Z,86.67
2022-08-30T01:18:55.589Z,100.00
2022-08-30T01:19:55.597Z,100.00
2022-08-30T01:20:55.553Z,100.00
2022-08-30T01:21:55.583Z,100.00
2022-08-30T01:22:55.531Z,100.00
2022-08-30T01:23:55.523Z,100.00
2022-08-30T01:24:55.512Z,100.00
2022-08-30T01:25:55.490Z,100.00
2022-08-30T01:26:55.489Z,100.00
2022-08-30T01:27:55.463Z,100.00
2022-08-30T01:28:55.467Z,100.00
2022-08-30T01:29:55.437Z,84.31
2022-08-30T01:30:55.494Z,84.21
2022-08-30T01:31:55.419Z,84.01
2022-08-30T01:32:55.405Z,83.76
2022-08-30T01:33:55.400Z,83.76
2022-08-30T01:34:55.383Z,83.66
2022-08-30T01:35:55.359Z,83.66
2022-08-30T01:36:55.354Z,83.66
2022-08-30T01:37:55.337Z,83.46
2022-08-30T01:38:55.339Z,83.36
2022-08-30T01:39:55.324Z,83.26
2022-08-30T01:40:55.303Z,83.26
2022-08-30T01:41:55.292Z,83.26
2022-08-30T01:42:55.285Z,83.26
2022-08-30T01:43:55.259Z,83.16
2022-08-30T01:44:55.247Z,83.16
2022-08-30T01:45:55.290Z,83.06
2022-08-30T01:46:55.284Z,82.79
2022-08-30T01:47:55.261Z,82.90
2022-08-30T01:48:55.196Z,82.90
2022-08-30T01:49:55.181Z,82.70
2022-08-30T01:50:55.175Z,82.79
2022-08-30T01:52:01.006Z,82.90
2022-08-30T01:52:55.186Z,83.10
2022-08-30T01:53:55.135Z,83.20
2022-08-30T01:54:55.146Z,83.44
2022-08-30T01:55:55.106Z,83.44
2022-08-30T01:56:55.094Z,83.44
2022-08-30T01:57:55.084Z,83.34
2022-08-30T01:58:57.292Z,83.34
2022-08-30T01:59:55.067Z,83.34
2022-08-30T02:00:55.088Z,83.44
2022-08-30T02:01:55.033Z,83.54
2022-08-30T02:02:55.017Z,83.64
2022-08-30T02:03:55.101Z,83.98
2022-08-30T02:04:55.007Z,84.19
2022-08-30T02:05:54.989Z,84.49
2022-08-30T02:06:55.158Z,84.93
2022-08-30T02:07:54.953Z,85.14
2022-08-30T02:08:54.944Z,85.14
2022-08-30T02:09:54.957Z,85.14
2022-08-30T02:10:54.919Z,85.24
2022-08-30T02:11:54.927Z,85.54
2022-08-30T02:12:54.915Z,85.64
2022-08-30T02:13:54.904Z,86.04
2022-08-30T02:14:54.872Z,100.00
2022-08-30T02:15:54.874Z,86.79
2022-08-30T02:16:55.008Z,87.50
2022-08-30T02:17:54.832Z,88.04
2022-08-30T02:18:54.821Z,88.45
2022-08-30T02:19:54.818Z,88.75
2022-08-30T02:20:54.806Z,89.06
2022-08-30T02:21:54.788Z,89.06
2022-08-30T02:22:56.690Z,89.06
2022-08-30T02:23:54.755Z,89.16
2022-08-30T02:24:54.739Z,89.16
2022-08-30T02:25:54.778Z,89.16
2022-08-30T02:26:54.721Z,89.12
2022-08-30T02:27:54.711Z,88.92
2022-08-30T02:28:54.695Z,88.61
2022-08-30T02:29:54.680Z,88.41
2022-08-30T02:30:54.775Z,88.21
2022-08-30T02:31:54.648Z,87.76
2022-08-30T02:32:54.657Z,87.56
2022-08-30T02:33:54.633Z,87.36
2022-08-30T02:34:54.610Z,87.15
2022-08-30T02:35:54.607Z,86.81
2022-08-30T02:36:54.593Z,86.51
2022-08-30T02:37:54.579Z,86.30
2022-08-30T02:38:54.559Z,86.10
2022-08-30T02:39:54.577Z,86.00
2022-08-30T02:40:54.539Z,85.80
2022-08-30T02:41:54.530Z,100.00
2022-08-30T02:42:54.513Z,100.00
2022-08-30T02:43:54.517Z,85.46
2022-08-30T02:44:54.490Z,85.36
2022-08-30T02:45:54.513Z,100.00
2022-08-30T02:46:54.469Z,100.00
2022-08-30T02:47:54.440Z,100.00
2022-08-30T02:48:54.442Z,100.00
2022-08-30T02:49:54.428Z,84.75
2022-08-30T02:50:54.405Z,100.00
2022-08-30T02:51:54.400Z,100.00
2022-08-30T02:52:54.433Z,100.00
2022-08-30T02:53:54.364Z,100.00
2022-08-30T02:54:54.358Z,100.00
2022-08-30T02:55:54.341Z,100.00
2022-08-30T02:56:54.388Z,100.00
2022-08-30T02:57:54.327Z,100.00
2022-08-30T02:58:54.311Z,83.84
2022-08-30T02:59:54.293Z,83.84
2022-08-30T03:00:54.378Z,100.00
2022-08-30T03:01:54.288Z,100.00
2022-08-30T03:02:54.256Z,100.00
2022-08-30T03:03:54.278Z,83.70
2022-08-30T03:04:54.236Z,83.80
2022-08-30T03:05:54.215Z,100.00
2022-08-30T03:06:54.221Z,84.01
2022-08-30T03:07:54.196Z,83.80
2022-08-30T03:08:54.177Z,83.60
2022-08-30T03:09:54.169Z,83.40
2022-08-30T03:10:54.161Z,83.40
2022-08-30T03:11:54.145Z,83.30
2022-08-30T03:12:54.146Z,83.20
2022-08-30T03:13:54.146Z,83.20
2022-08-30T03:14:54.111Z,83.20
2022-08-30T03:15:54.088Z,83.10
2022-08-30T03:16:54.178Z,82.90
2022-08-30T03:17:54.067Z,100.00
2022-08-30T03:18:54.066Z,100.00
2022-08-30T03:19:54.036Z,100.00
2022-08-30T03:20:54.891Z,82.29
2022-08-30T03:21:54.021Z,82.29
2022-08-30T03:22:54.005Z,82.09
2022-08-30T03:23:54.014Z,81.99
2022-08-30T03:24:53.983Z,81.99
2022-08-30T03:25:53.996Z,82.09
2022-08-30T03:26:53.962Z,82.19
2022-08-30T03:27:53.945Z,82.29
2022-08-30T03:28:53.973Z,82.29
2022-08-30T03:29:53.929Z,82.19
2022-08-30T03:30:53.905Z,82.19
2022-08-30T03:31:54.074Z,82.39
2022-08-30T03:32:53.886Z,82.39
2022-08-30T03:33:53.873Z,82.39
2022-08-30T03:34:53.859Z,82.39
2022-08-30T03:35:53.839Z,82.53
2022-08-30T03:36:53.828Z,82.50
2022-08-30T03:37:56.181Z,82.64
2022-08-30T03:38:53.809Z,82.50
2022-08-30T03:39:53.786Z,82.43
2022-08-30T03:40:53.802Z,82.43
2022-08-30T03:41:53.777Z,82.33
2022-08-30T03:42:53.746Z,82.43
2022-08-30T03:43:53.729Z,82.33
2022-08-30T03:44:53.734Z,82.03
2022-08-30T03:45:53.785Z,82.03
2022-08-30T03:46:53.700Z,81.93
2022-08-30T03:47:53.677Z,82.13
2022-08-30T03:48:53.675Z,82.43
2022-08-30T03:49:53.659Z,82.64
2022-08-30T03:50:53.674Z,82.93
2022-08-30T03:51:53.632Z,83.04
2022-08-30T03:52:53.620Z,83.14
2022-08-30T03:53:53.616Z,83.24
2022-08-30T03:54:53.641Z,83.24
2022-08-30T03:55:53.586Z,83.34
2022-08-30T03:56:53.646Z,83.34
2022-08-30T03:57:53.571Z,83.14
2022-08-30T03:58:53.603Z,83.24
2022-08-30T03:59:53.529Z,83.14
2022-08-30T04:00:53.577Z,82.93
2022-08-30T04:01:53.582Z,82.84
2022-08-30T04:02:53.491Z,83.04
2022-08-30T04:03:53.504Z,83.14
2022-08-30T04:04:53.465Z,83.34
2022-08-30T04:05:53.454Z,83.54
2022-08-30T04:06:53.440Z,83.54
2022-08-30T04:07:53.436Z,83.54
2022-08-30T04:08:53.424Z,83.54
2022-08-30T04:09:53.394Z,83.44
2022-08-30T04:10:53.415Z,83.54
2022-08-30T04:11:53.372Z,83.44
2022-08-30T04:12:53.364Z,83.34
2022-08-30T04:13:53.381Z,83.14
2022-08-30T04:14:53.336Z,82.93
2022-08-30T04:15:53.349Z,82.93
2022-08-30T04:16:53.422Z,82.84
2022-08-30T04:17:53.346Z,82.84
2022-08-30T04:18:53.287Z,82.64
2022-08-30T04:19:53.274Z,82.53
2022-08-30T04:20:53.293Z,82.53
2022-08-30T04:21:53.248Z,82.53
2022-08-30T04:22:53.233Z,82.64
2022-08-30T04:23:53.240Z,82.50
2022-08-30T04:24:53.205Z,82.29
2022-08-30T04:25:53.207Z,82.19
2022-08-30T04:26:53.182Z,82.09
2022-08-30T04:27:53.173Z,82.09
2022-08-30T04:28:53.167Z,82.19
2022-08-30T04:29:53.145Z,82.19
2022-08-30T04:30:53.135Z,82.29
2022-08-30T04:31:53.180Z,82.19
2022-08-30T04:32:56.800Z,82.09
2022-08-30T04:33:53.104Z,100.00
2022-08-30T04:34:53.097Z,81.99
2022-08-30T04:35:53.069Z,82.09
2022-08-30T04:36:53.064Z,82.09
2022-08-30T04:37:53.042Z,82.09
2022-08-30T04:38:53.026Z,100.00
2022-08-30T04:39:53.019Z,82.29
2022-08-30T04:40:53.014Z,82.19
2022-08-30T04:41:53.074Z,100.00
2022-08-30T04:42:52.976Z,100.00
2022-08-30T04:43:52.990Z,81.82
2022-08-30T04:44:52.953Z,81.52
2022-08-30T04:45:53.001Z,100.00
2022-08-30T04:46:52.964Z,100.00
2022-08-30T04:47:52.932Z,100.00
2022-08-30T04:48:52.906Z,100.00
2022-08-30T04:49:52.893Z,100.00
2022-08-30T04:50:52.891Z,82.17
2022-08-30T04:51:52.866Z,82.17
2022-08-30T04:52:52.863Z,100.00
2022-08-30T04:53:52.854Z,82.07
2022-08-30T04:54:52.828Z,82.17
2022-08-30T04:55:52.825Z,82.27
2022-08-30T04:56:52.815Z,100.00
2022-08-30T04:57:52.802Z,82.61
2022-08-30T04:58:52.775Z,82.95
2022-08-30T04:59:52.785Z,83.56
2022-08-30T05:00:52.806Z,83.90
2022-08-30T05:01:52.811Z,100.00
2022-08-30T05:02:52.747Z,100.00
2022-08-30T05:03:52.720Z,86.61
2022-08-30T05:04:52.720Z,87.32
2022-08-30T05:05:52.690Z,87.73
2022-08-30T05:06:52.676Z,88.43
2022-08-30T05:07:52.686Z,89.48
2022-08-30T05:08:52.646Z,100.00
2022-08-30T05:09:52.639Z,100.00
2022-08-30T05:10:52.681Z,100.00
2022-08-30T05:11:52.610Z,90.75
2022-08-30T05:12:52.625Z,91.15
2022-08-30T05:13:52.610Z,91.35
2022-08-30T05:14:52.616Z,91.55
2022-08-30T05:15:52.595Z,91.55
2022-08-30T05:16:52.538Z,91.66
2022-08-30T05:17:52.539Z,91.70
2022-08-30T05:18:52.598Z,91.90
2022-08-30T05:19:52.519Z,91.90
2022-08-30T05:20:52.530Z,91.96
2022-08-30T05:21:52.489Z,92.06
2022-08-30T05:22:53.576Z,91.86
2022-08-30T05:23:52.475Z,91.75
2022-08-30T05:24:52.436Z,91.35
2022-08-30T05:25:52.461Z,100.00
2022-08-30T05:26:52.432Z,91.00
2022-08-30T05:27:52.397Z,91.11
2022-08-30T05:28:52.418Z,91.00
2022-08-30T05:29:52.383Z,91.00
2022-08-30T05:30:52.369Z,90.96
2022-08-30T05:31:52.400Z,90.76
2022-08-30T05:32:52.348Z,100.00
2022-08-30T05:33:52.512Z,100.00
2022-08-30T05:34:52.306Z,100.00
2022-08-30T05:35:52.317Z,100.00
2022-08-30T05:36:52.300Z,100.00
2022-08-30T05:37:52.277Z,100.00
2022-08-30T05:38:52.252Z,100.00
2022-08-30T05:39:52.247Z,100.00
2022-08-30T05:40:52.232Z,88.35
2022-08-30T05:41:52.254Z,88.25
2022-08-30T05:42:52.210Z,88.10
2022-08-30T05:43:52.198Z,88.10
2022-08-30T05:44:52.185Z,88.01
2022-08-30T05:45:52.213Z,88.01
2022-08-30T05:46:52.159Z,88.21
2022-08-30T05:47:52.144Z,88.31
2022-08-30T05:48:52.126Z,88.21
2022-08-30T05:49:52.134Z,88.01
2022-08-30T05:50:52.108Z,88.10
2022-08-30T05:51:52.089Z,88.31
2022-08-30T05:52:52.214Z,88.31
2022-08-30T05:53:52.067Z,88.31
2022-08-30T05:54:52.055Z,88.31
2022-08-30T05:55:52.033Z,88.37
2022-08-30T05:56:52.063Z,88.37
2022-08-30T05:57:52.015Z,88.26
2022-08-30T05:58:52.039Z,87.86
2022-08-30T05:59:51.982Z,87.66
2022-08-30T06:00:51.968Z,87.76
2022-08-30T06:01:52.023Z,87.72
2022-08-30T06:02:51.995Z,87.72
2022-08-30T06:03:51.957Z,87.72
2022-08-30T06:04:51.912Z,87.72
2022-08-30T06:05:51.906Z,87.92
2022-08-30T06:06:51.895Z,87.68
2022-08-30T06:07:51.889Z,87.98
2022-08-30T06:08:51.865Z,87.18
2022-08-30T06:09:51.851Z,86.87
2022-08-30T06:10:51.841Z,86.33
2022-08-30T06:11:51.836Z,86.22
2022-08-30T06:12:51.810Z,86.13
2022-08-30T06:13:51.800Z,85.62
2022-08-30T06:14:51.789Z,85.72
2022-08-30T06:15:51.822Z,85.68
2022-08-30T06:16:51.795Z,85.58
2022-08-30T06:17:51.752Z,85.48
2022-08-30T06:18:51.736Z,85.28
2022-08-30T06:19:51.735Z,85.08
2022-08-30T06:20:51.708Z,84.97
2022-08-30T06:21:51.711Z,85.08
2022-08-30T06:22:51.684Z,85.28
2022-08-30T06:23:51.674Z,85.28
2022-08-30T06:24:57.528Z,85.24
2022-08-30T06:25:51.660Z,85.14
2022-08-30T06:26:51.649Z,84.74
2022-08-30T06:27:55.976Z,84.53
2022-08-30T06:28:51.613Z,84.63
2022-08-30T06:29:51.601Z,84.53
2022-08-30T06:30:51.628Z,84.53
2022-08-30T06:31:51.593Z,84.53
2022-08-30T06:32:51.561Z,84.43
2022-08-30T06:33:51.570Z,84.39
2022-08-30T06:34:51.537Z,84.29
2022-08-30T06:35:59.094Z,84.29
2022-08-30T06:36:51.513Z,84.09
2022-08-30T06:37:51.496Z,83.79
2022-08-30T06:38:51.478Z,83.65
2022-08-30T06:39:51.486Z,83.45
2022-08-30T06:40:51.457Z,83.34
2022-08-30T06:41:51.449Z,83.34
2022-08-30T06:42:51.428Z,83.45
2022-08-30T06:43:51.422Z,83.34
2022-08-30T06:44:51.538Z,83.25
2022-08-30T06:45:51.392Z,83.11
2022-08-30T06:46:51.398Z,82.60
2022-08-30T06:47:51.491Z,82.50
2022-08-30T06:48:51.357Z,82.30
2022-08-30T06:49:51.350Z,81.79
2022-08-30T06:50:51.341Z,81.79
2022-08-30T06:51:51.357Z,81.79
2022-08-30T06:52:51.330Z,81.85
2022-08-30T06:53:51.317Z,81.76
2022-08-30T06:54:51.275Z,81.76
2022-08-30T06:55:51.305Z,81.85
2022-08-30T06:56:59.075Z,81.56
2022-08-30T06:57:51.247Z,81.56
2022-08-30T06:58:51.243Z,81.65
2022-08-30T06:59:55.346Z,81.76
2022-08-30T07:00:51.215Z,81.56
2022-08-30T07:01:51.264Z,81.46
2022-08-30T07:02:51.249Z,81.35
2022-08-30T07:03:51.179Z,81.41
2022-08-30T07:04:51.156Z,81.52
2022-08-30T07:05:51.149Z,81.62
2022-08-30T07:06:51.123Z,81.62
2022-08-30T07:07:51.103Z,81.62
2022-08-30T07:08:56.259Z,81.62
2022-08-30T07:09:51.081Z,81.52
2022-08-30T07:10:51.064Z,81.41
2022-08-30T07:11:51.052Z,81.32
2022-08-30T07:12:51.043Z,81.12
2022-08-30T07:13:51.044Z,81.12
2022-08-30T07:14:51.040Z,81.01
2022-08-30T07:15:51.060Z,80.98
2022-08-30T07:16:52.247Z,80.98
2022-08-30T07:17:51.005Z,80.47
2022-08-30T07:18:50.955Z,79.77
2022-08-30T07:19:50.958Z,79.67
2022-08-30T07:20:50.930Z,79.67
2022-08-30T07:21:50.946Z,79.97
2022-08-30T07:22:50.904Z,79.47
2022-08-30T07:23:53.440Z,78.97
2022-08-30T07:24:50.890Z,78.97
2022-08-30T07:25:50.902Z,79.17
2022-08-30T07:26:50.883Z,79.33
2022-08-30T07:27:50.886Z,79.73
2022-08-30T07:28:55.869Z,79.73
2022-08-30T07:29:50.842Z,79.53
2022-08-30T07:30:50.806Z,79.43
2022-08-30T07:31:50.804Z,79.33
2022-08-30T07:32:50.787Z,79.43
2022-08-30T07:33:50.771Z,79.23
2022-08-30T07:34:50.756Z,79.23
2022-08-30T07:35:50.760Z,79.23
2022-08-30T07:36:50.727Z,79.23
2022-08-30T07:37:50.730Z,79.23
2022-08-30T07:38:50.704Z,79.13
2022-08-30T07:39:50.706Z,79.13
2022-08-30T07:40:50.686Z,79.13
2022-08-30T07:41:50.667Z,79.09
2022-08-30T07:42:50.671Z,78.99
2022-08-30T07:43:50.643Z,78.89
2022-08-30T07:44:54.715Z,78.89
2022-08-30T07:45:50.629Z,78.89
2022-08-30T07:46:50.692Z,78.99
2022-08-30T07:47:50.592Z,78.79
2022-08-30T07:48:50.566Z,78.69
2022-08-30T07:49:50.595Z,78.69
2022-08-30T07:50:53.723Z,78.55
2022-08-30T07:51:50.627Z,77.95
2022-08-30T07:52:50.520Z,77.65
2022-08-30T07:53:50.509Z,77.65
2022-08-30T07:54:52.836Z,77.75
2022-08-30T07:55:50.493Z,77.75
2022-08-30T07:56:50.475Z,77.75
2022-08-30T07:57:50.483Z,77.75
2022-08-30T07:58:50.439Z,77.95
2022-08-30T07:59:50.434Z,77.95
2022-08-30T08:00:50.414Z,78.05
2022-08-30T08:01:50.467Z,77.95
2022-08-30T08:02:50.545Z,77.95
2022-08-30T08:03:50.517Z,77.81
2022-08-30T08:04:50.375Z,77.61
2022-08-30T08:05:50.369Z,77.41
2022-08-30T08:06:50.348Z,77.21
2022-08-30T08:07:50.330Z,77.21
2022-08-30T08:08:50.314Z,77.01
2022-08-30T08:09:50.306Z,76.81
2022-08-30T08:10:50.300Z,76.81
2022-08-30T08:11:50.276Z,76.81
2022-08-30T08:12:50.256Z,76.91
2022-08-30T08:14:00.632Z,76.91
2022-08-30T08:14:50.244Z,76.71
2022-08-30T08:15:50.285Z,76.71
2022-08-30T08:16:50.216Z,76.57
2022-08-30T08:17:50.205Z,76.57
2022-08-30T08:18:50.189Z,76.47
2022-08-30T08:19:50.182Z,76.37
2022-08-30T08:20:50.165Z,76.28
2022-08-30T08:21:55.710Z,76.28
2022-08-30T08:22:50.136Z,76.07
2022-08-30T08:23:50.126Z,75.77
2022-08-30T08:24:50.132Z,75.57
2022-08-30T08:25:50.098Z,75.57
2022-08-30T08:26:50.089Z,75.47
2022-08-30T08:27:50.069Z,75.47
2022-08-30T08:28:50.052Z,75.34
2022-08-30T08:29:50.055Z,75.23
2022-08-30T08:30:50.117Z,75.04
2022-08-30T08:31:50.120Z,74.93
2022-08-30T08:32:50.005Z,74.84
2022-08-30T08:33:50.038Z,74.84
2022-08-30T08:34:49.986Z,74.63
2022-08-30T08:35:49.964Z,73.93
2022-08-30T08:36:49.963Z,73.60
2022-08-30T08:37:49.938Z,73.60
2022-08-30T08:38:49.938Z,72.50
2022-08-30T08:39:49.918Z,71.39
2022-08-30T08:40:49.915Z,72.00
2022-08-30T08:41:49.894Z,72.39
2022-08-30T08:42:49.883Z,72.26
2022-08-30T08:43:49.859Z,71.66
2022-08-30T08:44:49.861Z,71.76
2022-08-30T08:45:49.989Z,71.76
2022-08-30T08:46:49.831Z,71.96
2022-08-30T08:47:50.645Z,71.46
2022-08-30T08:49:04.979Z,70.76
2022-08-30T08:49:49.791Z,70.92
2022-08-30T08:50:49.771Z,71.12
2022-08-30T08:51:49.788Z,71.03
2022-08-30T08:52:49.777Z,70.83
2022-08-30T08:53:49.731Z,70.62
2022-08-30T08:54:49.748Z,70.43
2022-08-30T08:55:49.719Z,69.82
2022-08-30T08:56:49.713Z,69.53
2022-08-30T08:57:49.708Z,69.62
2022-08-30T08:58:49.714Z,69.82
2022-08-30T08:59:49.650Z,70.23
2022-08-30T09:00:49.653Z,69.82
2022-08-30T09:01:49.689Z,69.53
2022-08-30T09:02:53.877Z,69.43
2022-08-30T09:03:49.615Z,69.69
2022-08-30T09:04:49.629Z,69.69
2022-08-30T09:05:49.577Z,69.79
2022-08-30T09:06:49.617Z,69.09
2022-08-30T09:07:49.554Z,68.49
2022-08-30T09:08:49.541Z,69.59
2022-08-30T09:09:49.526Z,70.29
2022-08-30T09:10:50.736Z,67.49
2022-08-30T09:11:49.523Z,69.19
2022-08-30T09:12:49.501Z,69.96
2022-08-30T09:13:49.468Z,70.36
2022-08-30T09:14:49.478Z,70.26
2022-08-30T09:15:54.360Z,70.26
2022-08-30T09:16:49.465Z,69.26
2022-08-30T09:17:49.420Z,68.66
